ENAN/ANX METAR and TAF weather

Enter ICAO airport designator
Station Type Date Time Source
ENAN METAR 2021/05/14 12:20 UTC NOAA

ENAN 141220Z 05021KT 9999 FEW020 BKN070 07/02 Q1016


Station Type Date Time Source
ENAN Decoded METAR 2021/05/14 12:20 UTC NOAA

Andoya, Norway (ENAN) 69-18N 016-09E 14M
May 14, 2021 - 08:20 AM EDT / 2021.05.14 1220 UTC
Wind: from the NE (050 degrees) at 24 MPH (21 KT):0
Visibility: greater than 7 mile(s):0
Sky conditions: mostly cloudy
Temperature: 44 F (7 C)
Dew Point: 35 F (2 C)
Relative Humidity: 70%
Pressure (altimeter): 30.00 in. Hg (1016 hPa)
ob: ENAN 141220Z 05021KT 9999 FEW020 BKN070 07/02 Q1016
cycle: 12

Station Type Date Time Source
ENAN TAF 2021/05/14 12:58 UTC NOAA

TAF ENAN 141100Z 1412/1512 06020KT 9999 FEW020 SCT070
BECMG 1422/1501 06010KT
BECMG 1509/1511 06020KT

Example: see airport list